Time;durP1;ratioP1;P1;durP2;ratioP2;P2;SDS_P1;SDS_P2;PMS_P1;PMS_P2;Temp;Humidity;BMP_temperature;BMP_pressure;BME280_temperature;BME280_humidity;BME280_pressure;Samples;Min_cycle;Max_cycle;Signal;HPM_P1;HPM_P2
2022/06/19 00:01:08;;;;;;;7.95;2.50;;;;;;;18.67;78.05;100808.59;5009789;28;20536;-65
2022/06/19 00:03:38;;;;;;;5.88;1.95;;;;;;;18.62;77.23;100810.38;5013904;28;20141;-65
2022/06/19 00:06:04;;;;;;;9.07;2.60;;;;;;;18.58;78.13;100800.78;5012929;28;20363;-65
2022/06/19 00:08:31;;;;;;;7.18;2.50;;;;;;;18.51;78.12;100799.03;5011097;28;20028;-65
2022/06/19 00:10:57;;;;;;;7.20;2.40;;;;;;;18.45;78.09;100803.41;5010709;28;20036;-66
2022/06/19 00:13:22;;;;;;;8.05;2.40;;;;;;;18.35;78.38;100806.91;5009009;28;20112;-65
2022/06/19 00:15:47;;;;;;;6.95;1.83;;;;;;;18.26;79.01;100802.53;5010646;28;20109;-66
2022/06/19 00:18:13;;;;;;;8.52;2.10;;;;;;;18.20;79.62;100792.06;5008221;28;20406;-66
2022/06/19 00:20:39;;;;;;;7.55;1.85;;;;;;;18.15;78.89;100789.44;5012081;28;20272;-65
2022/06/19 00:23:05;;;;;;;8.77;2.42;;;;;;;18.11;78.88;100792.91;5008418;28;20026;-66
2022/06/19 00:25:30;;;;;;;7.05;2.00;;;;;;;18.10;77.48;100788.53;5010083;28;20079;-65
2022/06/19 00:27:56;;;;;;;6.78;2.15;;;;;;;18.07;78.71;100788.53;5009485;28;20133;-65
2022/06/19 00:30:21;;;;;;;7.60;1.83;;;;;;;18.04;78.28;100796.41;5012876;28;20204;-65
2022/06/19 00:32:47;;;;;;;10.30;2.47;;;;;;;18.00;79.01;100800.78;5011460;28;20471;-66
2022/06/19 00:35:12;;;;;;;9.60;2.20;;;;;;;17.96;79.32;100815.63;5011062;28;20026;-65
2022/06/19 00:37:38;;;;;;;7.35;1.90;;;;;;;17.97;79.42;100825.22;5009453;28;20330;-65
2022/06/19 00:40:06;;;;;;;6.90;1.80;;;;;;;17.90;79.21;100826.09;5010072;28;20435;-65
2022/06/19 00:42:31;;;;;;;8.98;2.33;;;;;;;17.84;78.90;100826.09;5010517;28;20030;-66
2022/06/19 00:44:57;;;;;;;10.70;2.33;;;;;;;17.79;79.23;100822.59;5012282;28;20032;-65
2022/06/19 00:47:29;;;;;;;9.70;2.70;;;;;;;17.69;78.77;100816.47;5009044;28;20605;-66
2022/06/19 00:50:01;;;;;;;5.82;2.25;;;;;;;17.59;79.02;100813.81;5009661;28;20029;-65
2022/06/19 00:52:39;;;;;;;9.75;2.50;;;;;;;17.55;78.53;100808.56;5009400;28;20079;-65
2022/06/19 00:55:16;;;;;;;6.35;2.00;;;;;;;17.46;79.40;100815.53;5011287;28;20478;-65
2022/06/19 00:57:46;;;;;;;9.90;2.70;;;;;;;17.37;79.03;100821.63;5008613;28;20040;-65
2022/06/19 01:00:24;;;;;;;10.45;2.55;;;;;;;17.33;78.87;100818.97;5008691;28;20033;-65
2022/06/19 01:02:51;;;;;;;10.60;2.65;;;;;;;17.30;78.69;100830.34;5011223;28;20476;-66
2022/06/19 01:05:17;;;;;;;12.40;2.20;;;;;;;17.22;77.37;100819.81;5013795;28;20035;-65
2022/06/19 01:07:44;;;;;;;8.15;2.35;;;;;;;17.18;77.19;100815.44;5015059;28;20021;-65
2022/06/19 01:10:12;;;;;;;8.45;2.17;;;;;;;17.17;77.99;100824.16;5008658;28;20249;-65
2022/06/19 01:12:40;;;;;;;11.60;3.30;;;;;;;17.05;76.91;100810.09;5008227;28;20501;-66
2022/06/19 01:15:09;;;;;;;10.20;2.58;;;;;;;17.00;77.25;100811.84;5011403;28;20030;-65
2022/06/19 01:17:35;;;;;;;14.70;2.85;;;;;;;16.96;76.10;100812.72;5010250;28;20028;-65
2022/06/19 01:20:07;;;;;;;9.32;2.60;;;;;;;16.92;76.28;100832.75;5009890;28;20033;-65
2022/06/19 01:22:43;;;;;;;10.00;2.53;;;;;;;16.88;75.68;100892.91;5007902;28;20367;-65
2022/06/19 01:25:13;;;;;;;11.05;3.22;;;;;;;16.93;76.13;100977.53;5012615;28;20140;-65
2022/06/19 01:30:35;;;;;;;9.63;2.30;;;;;;;16.88;72.40;100888.53;5014433;28;20113;-65
2022/06/19 01:33:04;;;;;;;7.40;2.30;;;;;;;16.76;72.38;100865.81;5012866;28;20036;-65
2022/06/19 01:35:33;;;;;;;10.60;2.50;;;;;;;16.71;72.97;100922.47;5012409;28;20036;-65
2022/06/19 01:38:05;;;;;;;10.63;2.58;;;;;;;16.70;72.51;100952.06;5014378;28;20104;-65
2022/06/19 01:40:34;;;;;;;7.47;2.10;;;;;;;16.66;70.95;100917.16;5013575;28;20017;-65
2022/06/19 01:42:59;;;;;;;8.10;2.55;;;;;;;16.50;70.33;100879.56;5011736;28;20125;-65
2022/06/19 01:45:24;;;;;;;11.38;2.33;;;;;;;16.46;71.10;100913.53;5013423;28;20026;-65
2022/06/19 01:47:50;;;;;;;7.95;1.67;;;;;;;16.44;70.88;100952.75;5012354;28;20113;-65
2022/06/19 01:50:28;;;;;;;10.95;2.95;;;;;;;16.43;70.31;100928.31;5014441;28;20032;-65
2022/06/19 01:53:03;;;;;;;8.95;2.45;;;;;;;16.38;68.55;100908.22;5013686;28;20532;-65
2022/06/19 01:55:29;;;;;;;12.05;2.97;;;;;;;16.26;68.61;100928.13;5015056;28;20022;-65
2022/06/19 01:57:57;;;;;;;10.73;2.38;;;;;;;16.19;67.82;100923.75;5013284;28;20028;-65
2022/06/19 02:00:27;;;;;;;10.93;2.50;;;;;;;16.12;67.81;100921.94;5012788;28;20022;-65
2022/06/19 02:02:59;;;;;;;10.60;2.17;;;;;;;16.01;67.59;100932.25;5013043;28;20029;-65
2022/06/19 02:05:25;;;;;;;13.65;3.13;;;;;;;15.97;68.58;100928.72;5016333;28;20053;-65
2022/06/19 02:07:50;;;;;;;11.43;2.58;;;;;;;15.87;67.59;100926.81;5011750;28;20036;-66
2022/06/19 02:10:15;;;;;;;9.90;2.42;;;;;;;15.84;67.53;100949.47;5011579;28;20022;-64
2022/06/19 02:12:41;;;;;;;8.68;2.13;;;;;;;15.79;66.73;100943.31;5013563;28;20029;-65
2022/06/19 02:15:09;;;;;;;11.68;2.40;;;;;;;15.75;66.02;100930.19;5013177;28;20041;-65
2022/06/19 02:17:43;;;;;;;10.60;2.60;;;;;;;15.69;66.03;100937.09;5012422;28;20022;-65
2022/06/19 02:20:09;;;;;;;11.00;2.67;;;;;;;15.60;65.05;100937.84;5013555;28;20025;-65
2022/06/19 02:22:35;;;;;;;7.35;2.17;;;;;;;15.54;64.24;100929.94;5011811;28;20026;-65
2022/06/19 02:25:02;;;;;;;10.07;2.45;;;;;;;15.54;64.02;100932.53;5013921;28;20054;-64
2022/06/19 02:27:29;;;;;;;10.18;2.25;;;;;;;15.50;63.24;100941.22;5012432;28;20017;-65
2022/06/19 02:29:55;;;;;;;10.57;2.35;;;;;;;15.48;64.32;100938.59;5012127;28;20398;-65
2022/06/19 02:32:30;;;;;;;8.93;2.03;;;;;;;15.47;63.72;100938.56;5015018;28;20269;-65
2022/06/19 02:34:56;;;;;;;8.63;1.90;;;;;;;15.50;63.84;100954.28;5011300;28;20037;-65
2022/06/19 02:37:24;;;;;;;10.02;2.35;;;;;;;15.51;63.96;100961.22;5011875;28;20033;-65
2022/06/19 02:40:13;;;;;;;9.35;1.98;;;;;;;15.51;63.97;100961.22;5010322;28;20485;-65
2022/06/19 02:42:40;;;;;;;8.95;2.65;;;;;;;15.51;63.94;100961.22;5011245;28;20465;-64
2022/06/19 02:45:21;;;;;;;7.57;1.65;;;;;;;15.49;63.83;100952.50;5014383;28;20030;-65
2022/06/19 02:47:49;;;;;;;8.98;2.00;;;;;;;15.48;63.65;100953.38;5016834;28;20021;-65
2022/06/19 02:50:18;;;;;;;8.95;2.47;;;;;;;15.46;62.14;100955.06;5011459;28;20033;-65
2022/06/19 02:52:43;;;;;;;7.55;1.70;;;;;;;15.44;62.00;100935.91;5010029;28;20040;-65
2022/06/19 02:55:10;;;;;;;10.73;2.28;;;;;;;15.42;61.24;100932.38;5010972;28;20026;-65
2022/06/19 02:57:36;;;;;;;8.75;2.03;;;;;;;15.37;60.86;100937.56;5013607;28;20454;-65
2022/06/19 03:00:04;;;;;;;8.80;2.20;;;;;;;15.39;61.09;100942.78;5013582;28;20041;-64
2022/06/19 03:02:31;;;;;;;9.75;1.73;;;;;;;15.36;61.08;100975.81;5009011;28;20591;-65
2022/06/19 03:05:01;;;;;;;10.50;1.88;;;;;;;15.43;62.03;101044.69;5012327;28;20100;-65
2022/06/19 03:07:29;;;;;;;9.25;1.95;;;;;;;15.50;61.38;101056.09;5011792;28;20029;-65
2022/06/19 03:09:55;;;;;;;11.30;1.85;;;;;;;15.55;61.50;101023.09;5013064;28;20040;-65
2022/06/19 03:12:20;;;;;;;8.18;2.28;;;;;;;15.53;61.48;100992.59;5012357;28;20037;-65
2022/06/19 03:14:46;;;;;;;11.48;2.13;;;;;;;15.47;61.29;100972.50;5008878;28;20418;-65
2022/06/19 03:17:21;;;;;;;9.18;1.88;;;;;;;15.43;61.78;100974.19;5011148;28;20074;-65
2022/06/19 03:19:48;;;;;;;9.50;2.38;;;;;;;15.38;61.61;100988.03;5012670;28;20034;-65
2022/06/19 03:22:13;;;;;;;11.70;2.15;;;;;;;15.34;62.71;100972.31;5009314;28;20022;-65
2022/06/19 03:24:39;;;;;;;5.35;1.60;;;;;;;15.30;61.92;100953.97;5009108;28;20045;-65
2022/06/19 03:27:06;;;;;;;6.60;1.80;;;;;;;15.22;61.15;100931.25;5007888;28;20087;-65
2022/06/19 03:29:32;;;;;;;7.15;1.55;;;;;;;15.16;60.87;100923.34;5012912;28;20029;-64
2022/06/19 03:31:58;;;;;;;9.50;1.75;;;;;;;15.15;61.57;100944.22;5015474;28;20111;-65
2022/06/19 03:34:23;;;;;;;9.48;1.88;;;;;;;15.10;61.04;100962.41;5011113;28;20040;-64
2022/06/19 03:36:49;;;;;;;6.88;1.40;;;;;;;15.10;60.45;100968.50;5008652;28;20528;-65
2022/06/19 03:39:15;;;;;;;8.05;1.88;;;;;;;15.04;60.43;100942.31;5011628;28;20273;-65
2022/06/19 03:41:40;;;;;;;9.35;1.38;;;;;;;15.02;59.83;100933.56;5012644;28;20593;-65
2022/06/19 03:44:06;;;;;;;6.60;0.93;;;;;;;14.92;59.17;100913.41;5018523;28;20041;-65
2022/06/19 03:46:32;;;;;;;10.98;1.77;;;;;;;14.88;60.50;100915.97;5007227;28;20528;-65
2022/06/19 03:48:57;;;;;;;7.78;1.15;;;;;;;14.91;60.69;100950.81;5008480;28;20373;-64
2022/06/19 03:51:23;;;;;;;7.90;1.35;;;;;;;14.89;60.60;100896.00;5009690;28;20033;-64
2022/06/19 03:53:53;;;;;;;8.30;1.20;;;;;;;14.92;60.37;100897.75;5009750;28;20026;-65
2022/06/19 03:56:25;;;;;;;5.68;0.98;;;;;;;14.91;60.93;100937.75;5017308;28;20025;-65
2022/06/19 03:58:51;;;;;;;4.63;1.20;;;;;;;14.92;61.14;100994.28;5009920;28;20018;-65
2022/06/19 04:01:19;;;;;;;4.32;1.10;;;;;;;14.98;61.08;101034.44;5010526;28;20034;-64
2022/06/19 04:03:46;;;;;;;7.72;1.60;;;;;;;15.00;60.63;101024.88;5011591;28;20033;-64
2022/06/19 04:06:14;;;;;;;4.30;1.17;;;;;;;14.98;59.88;100968.31;5010734;28;20022;-64
2022/06/19 04:08:40;;;;;;;7.35;1.17;;;;;;;14.97;58.93;100974.38;5009928;28;20028;-64
2022/06/19 04:11:07;;;;;;;6.75;1.13;;;;;;;14.95;59.17;100957.84;5009601;28;20041;-67
2022/06/19 04:13:34;;;;;;;8.90;1.15;;;;;;;14.89;59.09;100948.19;5009987;28;20446;-67
2022/06/19 04:16:00;;;;;;;5.32;1.05;;;;;;;14.88;59.17;100905.53;5009306;28;20026;-65
2022/06/19 04:18:26;;;;;;;10.00;1.45;;;;;;;14.89;59.18;100896.00;5010128;28;20022;-65
2022/06/19 04:20:51;;;;;;;5.35;1.08;;;;;;;14.91;59.34;100872.53;5008957;28;20030;-64
2022/06/19 04:23:17;;;;;;;4.63;1.10;;;;;;;14.87;59.20;100858.56;5011238;28;20464;-65
2022/06/19 04:25:45;;;;;;;9.32;1.42;;;;;;;14.87;59.48;100833.38;5022184;28;20025;-64
2022/06/19 04:28:10;;;;;;;5.85;1.05;;;;;;;14.86;59.72;100821.16;5010078;28;20026;-64
2022/06/19 04:30:37;;;;;;;4.13;1.35;;;;;;;14.87;59.17;100802.06;5011921;28;20072;-65
2022/06/19 04:33:02;;;;;;;5.93;1.20;;;;;;;14.92;60.26;100782.97;5011994;28;20056;-64
2022/06/19 04:35:28;;;;;;;5.40;1.10;;;;;;;14.88;60.21;100785.53;5009198;28;20026;-65
2022/06/19 04:37:54;;;;;;;8.43;1.13;;;;;;;14.85;60.16;100780.28;5013400;28;20045;-65
2022/06/19 04:40:19;;;;;;;7.82;1.67;;;;;;;14.87;60.79;100785.53;5013399;28;20213;-64
2022/06/19 04:42:44;;;;;;;8.13;1.33;;;;;;;14.87;61.01;100796.84;5012253;28;20025;-64
2022/06/19 04:45:10;;;;;;;5.95;1.42;;;;;;;14.91;60.59;100794.28;5007007;28;20032;-64
2022/06/19 04:47:36;;;;;;;6.40;1.27;;;;;;;14.91;60.45;100786.44;5013654;28;20473;-65
2022/06/19 04:50:02;;;;;;;5.35;1.67;;;;;;;14.92;60.61;100796.00;5009264;28;20033;-65
2022/06/19 04:52:27;;;;;;;5.63;1.25;;;;;;;14.90;60.66;100785.56;5009983;28;20671;-64
2022/06/19 04:54:52;;;;;;;5.53;1.60;;;;;;;14.92;60.73;100776.03;5010093;28;20437;-64
2022/06/19 04:57:17;;;;;;;5.72;1.38;;;;;;;14.91;60.88;100744.72;5009184;28;20053;-64
2022/06/19 04:59:43;;;;;;;5.43;1.48;;;;;;;14.93;61.28;100709.09;5011062;28;20026;-64
2022/06/19 05:02:13;;;;;;;7.40;1.33;;;;;;;14.96;60.79;100719.56;5011220;28;20037;-64
2022/06/19 05:04:38;;;;;;;7.03;1.27;;;;;;;14.96;61.56;100719.56;5010579;28;20040;-64
2022/06/19 05:07:04;;;;;;;9.32;1.70;;;;;;;14.89;60.30;100740.31;5010032;28;20034;-64
2022/06/19 05:09:29;;;;;;;7.05;1.30;;;;;;;14.91;61.04;100742.09;5013046;28;20603;-64
2022/06/19 05:11:54;;;;;;;5.70;1.17;;;;;;;14.82;61.82;100759.38;5010569;28;20501;-65
2022/06/19 05:14:20;;;;;;;7.38;1.38;;;;;;;14.88;63.15;100795.97;5011620;28;20113;-64
2022/06/19 05:16:45;;;;;;;10.98;1.73;;;;;;;14.96;62.92;100819.56;5008543;28;20026;-64
2022/06/19 05:19:11;;;;;;;5.28;1.48;;;;;;;15.03;61.61;100815.31;5008509;28;20109;-64
2022/06/19 05:21:36;;;;;;;5.70;1.33;;;;;;;15.05;60.82;100805.78;5013979;28;20212;-65
2022/06/19 05:24:02;;;;;;;4.45;1.45;;;;;;;15.11;60.94;100800.63;5010411;28;20072;-64
2022/06/19 05:26:33;;;;;;;3.53;1.02;;;;;;;15.21;60.53;100803.34;5013325;28;20042;-64
2022/06/19 05:28:59;;;;;;;8.45;1.40;;;;;;;15.29;61.85;100817.34;5009185;28;20048;-64
2022/06/19 05:31:26;;;;;;;3.40;1.15;;;;;;;15.40;61.37;100845.34;5007169;28;20080;-64
2022/06/19 05:33:51;;;;;;;6.97;1.13;;;;;;;15.48;61.42;100860.25;5008355;28;20064;-65
2022/06/19 05:36:18;;;;;;;6.47;1.38;;;;;;;15.56;59.59;100851.63;5006070;28;20029;-64
2022/06/19 05:38:44;;;;;;;6.57;1.45;;;;;;;15.65;60.30;100867.38;5007632;28;20112;-65
2022/06/19 05:41:09;;;;;;;6.35;1.30;;;;;;;15.76;60.31;100883.16;5005887;28;20033;-64
2022/06/19 05:43:35;;;;;;;4.43;1.13;;;;;;;15.85;60.58;100909.41;5004892;28;20453;-64
2022/06/19 05:46:13;;;;;;;5.70;1.25;;;;;;;16.05;62.25;100934.91;5006135;28;20280;-64
2022/06/19 05:48:38;;;;;;;5.53;1.67;;;;;;;16.22;60.75;100936.84;5007423;28;20124;-64
2022/06/19 05:51:10;;;;;;;5.43;1.17;;;;;;;16.46;62.21;100935.28;5004563;28;20493;-65
2022/06/19 05:53:38;;;;;;;6.93;1.60;;;;;;;16.66;60.76;100921.50;5004635;28;20018;-64
2022/06/19 05:56:04;;;;;;;6.43;1.67;;;;;;;16.76;60.81;100918.13;5004990;28;20037;-65
2022/06/19 05:58:30;;;;;;;5.35;1.20;;;;;;;16.80;59.81;100913.78;5005939;28;20064;-65
2022/06/19 06:00:56;;;;;;;6.30;1.75;;;;;;;16.79;60.30;100946.03;5009544;28;20025;-65
2022/06/19 06:03:23;;;;;;;5.68;1.50;;;;;;;16.78;59.76;100967.84;5007392;28;20029;-65
2022/06/19 06:05:49;;;;;;;5.55;1.70;;;;;;;16.71;60.28;100964.31;5006990;28;20112;-65
2022/06/19 06:08:15;;;;;;;7.75;1.42;;;;;;;16.60;59.85;100959.00;5005947;28;20116;-65
2022/06/19 06:10:41;;;;;;;5.85;1.77;;;;;;;16.47;60.12;100978.91;5009722;28;20022;-65
2022/06/19 06:13:07;;;;;;;9.40;2.53;;;;;;;16.44;61.43;100997.19;5008886;28;20044;-64
2022/06/19 06:15:32;;;;;;;7.68;1.60;;;;;;;16.43;62.25;101016.34;5008277;28;20117;-64
2022/06/19 06:17:59;;;;;;;8.13;1.77;;;;;;;16.42;61.51;101015.47;5008766;28;20740;-65
2022/06/19 06:20:25;;;;;;;8.13;1.73;;;;;;;16.40;61.97;101030.28;5008607;28;20026;-65
2022/06/19 06:22:51;;;;;;;7.63;1.38;;;;;;;16.41;62.25;101016.34;5008281;28;20041;-64
2022/06/19 06:25:16;;;;;;;7.95;1.65;;;;;;;16.33;61.78;101002.31;5007935;28;20013;-65
2022/06/19 06:27:41;;;;;;;7.53;1.75;;;;;;;16.29;62.28;101051.09;5011077;28;20036;-65
2022/06/19 06:30:07;;;;;;;6.80;1.88;;;;;;;16.26;62.44;101132.06;5008661;28;20044;-64
2022/06/19 06:32:33;;;;;;;6.60;1.30;;;;;;;16.19;64.00;101111.97;5007326;28;20251;-64
2022/06/19 06:34:58;;;;;;;9.48;2.03;;;;;;;16.14;64.83;101144.97;5008273;28;20030;-64
2022/06/19 06:37:23;;;;;;;20.45;3.67;;;;;;;16.11;70.70;101178.94;5011811;28;20018;-64
2022/06/19 06:39:49;;;;;;;11.05;2.30;;;;;;;15.91;73.06;101230.00;5010008;28;20024;-64
2022/06/19 06:42:14;;;;;;;12.48;2.38;;;;;;;15.87;75.16;101246.47;5022688;28;20021;-64
2022/06/19 06:44:40;;;;;;;10.05;2.38;;;;;;;15.81;76.74;101244.66;5024598;28;20353;-64
2022/06/19 06:47:05;;;;;;;6.60;1.80;;;;;;;15.75;76.30;101239.34;5023260;28;20029;-65
2022/06/19 06:49:31;;;;;;;11.30;2.40;;;;;;;15.72;78.42;101254.97;5030439;28;20412;-65
2022/06/19 06:51:56;;;;;;;9.85;2.75;;;;;;;15.66;81.03;101236.56;5027135;28;20068;-65
2022/06/19 06:54:21;;;;;;;10.77;2.13;;;;;;;15.59;80.90;101233.84;5010811;28;20037;-65
2022/06/19 06:56:47;;;;;;;13.52;2.15;;;;;;;15.53;84.08;101223.28;5023115;28;20029;-65
2022/06/19 06:59:12;;;;;;;6.90;2.03;;;;;;;15.36;87.51;101209.94;5030166;28;20030;-64
2022/06/19 07:01:37;;;;;;;6.50;1.58;;;;;;;15.29;85.86;101210.69;5021062;28;20545;-65
2022/06/19 07:04:03;;;;;;;8.20;2.08;;;;;;;15.21;86.76;101197.47;5020156;28;20359;-65
2022/06/19 07:06:31;;;;;;;8.57;1.92;;;;;;;15.17;88.58;101177.38;5023070;28;20049;-65
2022/06/19 07:08:57;;;;;;;8.52;2.33;;;;;;;15.07;92.50;101187.69;5024114;28;20456;-65
2022/06/19 07:11:26;;;;;;;6.82;1.60;;;;;;;15.08;93.41;101189.41;5024459;28;20017;-65
2022/06/19 07:13:52;;;;;;;12.32;2.05;;;;;;;15.10;93.22;101192.94;5029257;28;20078;-64
2022/06/19 07:16:17;;;;;;;8.85;2.08;;;;;;;15.11;88.76;101220.78;5023985;28;20570;-65
2022/06/19 07:18:43;;;;;;;6.53;1.30;;;;;;;15.10;81.96;101234.69;5017982;28;20104;-64
2022/06/19 07:21:11;;;;;;;8.30;1.55;;;;;;;15.15;83.26;101242.59;5019039;28;20026;-65
2022/06/19 07:23:36;;;;;;;6.30;1.67;;;;;;;15.16;82.17;101253.94;5022906;28;20426;-65
2022/06/19 07:26:01;;;;;;;4.72;0.88;;;;;;;15.16;83.10;101239.16;5016714;28;20026;-65
2022/06/19 07:28:27;;;;;;;6.28;1.52;;;;;;;15.11;83.93;101228.63;5017268;28;20128;-64
2022/06/19 07:30:53;;;;;;;6.30;1.42;;;;;;;15.00;83.67;101199.69;5018694;28;20053;-65
2022/06/19 07:33:18;;;;;;;7.10;1.67;;;;;;;14.83;84.28;101157.63;5018562;28;20020;-64
2022/06/19 07:35:43;;;;;;;6.63;1.90;;;;;;;14.76;86.83;101127.94;5017582;28;20056;-64
2022/06/19 07:38:09;;;;;;;11.95;1.85;;;;;;;14.73;88.34;101103.50;5016670;28;20129;-65
2022/06/19 07:40:35;;;;;;;8.43;1.90;;;;;;;14.69;89.94;101119.94;5020294;28;20458;-65
2022/06/19 07:43:01;;;;;;;9.32;1.83;;;;;;;14.67;93.60;101132.06;5021071;28;20283;-64
2022/06/19 07:45:26;;;;;;;9.10;1.83;;;;;;;14.60;94.03;101124.13;5020987;28;20525;-64
2022/06/19 07:50:40;;;;;;;8.15;1.58;;;;;;;14.40;96.40;101019.44;5021798;28;20128;-65
2022/06/19 07:53:05;;;;;;;11.02;2.47;;;;;;;14.30;97.63;101062.72;5027038;28;20033;-64
2022/06/19 07:55:31;;;;;;;10.88;2.83;;;;;;;14.26;100.00;101128.66;5011547;28;20385;-64
2022/06/19 07:57:59;;;;;;;9.30;1.98;;;;;;;14.12;100.00;101188.28;5009470;28;20029;-64
2022/06/19 08:00:28;;;;;;;10.98;2.30;;;;;;;14.06;100.00;101207.25;5010078;28;20564;-64
2022/06/19 08:02:54;;;;;;;9.30;2.50;;;;;;;14.13;100.00;101214.38;5010587;28;20025;-65
2022/06/19 08:05:21;;;;;;;7.85;1.80;;;;;;;14.17;100.00;101202.31;5016369;28;20045;-67
2022/06/19 08:07:48;;;;;;;9.25;1.83;;;;;;;14.24;100.00;101162.50;5023154;28;20030;-68
2022/06/19 08:10:20;;;;;;;7.85;2.20;;;;;;;14.27;100.00;101130.41;5014404;28;20049;-67
2022/06/19 08:12:46;;;;;;;12.18;2.70;;;;;;;14.28;100.00;101127.81;5010840;28;20470;-67
2022/06/19 08:15:12;;;;;;;7.95;1.95;;;;;;;14.31;100.00;101116.59;5009979;28;20108;-67
2022/06/19 08:17:38;;;;;;;10.23;2.50;;;;;;;14.33;100.00;101145.28;5001589;28;20045;-67
2022/06/19 08:20:04;;;;;;;14.18;3.50;;;;;;;14.10;100.00;101196.09;5009396;28;20057;-67
2022/06/19 08:22:29;;;;;;;12.93;2.30;;;;;;;14.04;100.00;101196.81;5017492;28;20031;-67
2022/06/19 08:24:54;;;;;;;12.32;3.10;;;;;;;14.11;100.00;101153.53;5015001;28;20438;-67
2022/06/19 08:27:20;;;;;;;11.73;2.85;;;;;;;14.20;100.00;101094.63;5014113;28;20532;-67
2022/06/19 08:29:45;;;;;;;8.85;2.35;;;;;;;14.28;100.00;101090.47;5016057;28;20482;-67
2022/06/19 08:32:10;;;;;;;11.68;2.40;;;;;;;14.35;100.00;101094.97;5013401;28;20489;-64
2022/06/19 08:34:36;;;;;;;7.55;2.60;;;;;;;14.51;100.00;101093.56;5016682;28;20030;-64
2022/06/19 08:37:05;;;;;;;9.88;2.65;;;;;;;14.65;100.00;101079.88;5020727;28;20122;-64
2022/06/19 08:39:31;;;;;;;9.18;2.22;;;;;;;14.77;100.00;101076.63;5021766;28;20101;-64
2022/06/19 08:42:35;;;;;;;7.20;2.53;;;;;;;14.94;100.00;101065.66;5005510;28;20033;-64
2022/06/19 08:45:36;;;;;;;12.65;2.83;;;;;;;15.00;100.00;101064.00;5015060;28;20033;-64
2022/06/19 08:48:19;;;;;;;10.30;2.72;;;;;;;14.99;100.00;101056.16;5011707;28;20030;-64
2022/06/19 08:50:54;;;;;;;9.85;2.67;;;;;;;14.94;100.00;101010.84;5007786;28;20030;-64
2022/06/19 08:53:19;;;;;;;9.45;3.15;;;;;;;14.87;100.00;100997.72;5009738;28;20025;-64
2022/06/19 08:55:55;;;;;;;15.57;3.22;;;;;;;14.86;100.00;101009.00;5007132;28;20026;-64
2022/06/19 08:58:29;;;;;;;10.65;3.08;;;;;;;14.90;100.00;101033.41;5012927;28;20116;-64
2022/06/19 09:01:04;;;;;;;13.48;2.75;;;;;;;14.98;100.00;101049.19;5008129;28;20436;-64
2022/06/19 09:06:53;;;;;;;10.43;3.67;;;;;;;15.15;100.00;101048.63;5004878;28;20087;-63
2022/06/19 09:09:24;;;;;;;10.77;2.72;;;;;;;15.29;100.00;101056.66;5006638;28;20026;-64
2022/06/19 09:11:49;;;;;;;;;;;;;;;15.35;100.00;101073.28;5007850;28;20117;-64
2022/06/19 09:14:33;;;;;;;11.23;2.83;;;;;;;15.41;100.00;101111.69;5003592;28;20040;-64
2022/06/19 09:17:36;;;;;;;8.35;2.88;;;;;;;15.42;100.00;101138.66;5014388;28;20254;-64
2022/06/19 09:20:20;;;;;;;9.32;3.33;;;;;;;15.38;100.00;101162.97;5013091;28;20033;-64
2022/06/19 09:23:06;;;;;;;8.32;2.55;;;;;;;15.38;100.00;101183.84;5006032;28;20026;-64
2022/06/19 09:25:45;;;;;;;12.13;2.58;;;;;;;15.34;100.00;101175.94;5012841;28;20060;-67
2022/06/19 09:28:13;;;;;;;10.07;2.55;;;;;;;15.30;100.00;101168.94;5011175;28;20549;-67
2022/06/19 09:30:46;;;;;;;9.20;2.75;;;;;;;15.30;100.00;101163.72;5016305;28;20117;-67
2022/06/19 09:33:34;;;;;;;9.32;3.08;;;;;;;15.28;100.00;101169.75;5014521;28;20459;-67
2022/06/19 09:36:07;;;;;;;9.13;3.65;;;;;;;15.28;100.00;101160.19;5012746;28;20030;-64
2022/06/19 09:38:42;;;;;;;8.35;2.28;;;;;;;15.34;100.00;101152.44;5008926;28;20030;-65
2022/06/19 09:41:23;;;;;;;11.10;3.10;;;;;;;15.41;100.00;101140.41;5011746;28;20038;-66
2022/06/19 09:44:00;;;;;;;10.50;3.28;;;;;;;15.46;100.00;101117.84;5011798;28;20498;-68
2022/06/19 09:46:43;;;;;;;13.23;3.28;;;;;;;15.65;100.00;101109.44;5018569;28;20064;-66
2022/06/19 09:49:22;;;;;;;9.90;3.17;;;;;;;15.82;100.00;101088.78;5011144;28;20030;-66
2022/06/19 09:52:05;;;;;;;10.85;3.25;;;;;;;16.11;99.89;101074.38;5017626;28;20052;-69
2022/06/19 09:54:37;;;;;;;11.85;2.85;;;;;;;16.41;97.02;101072.97;5019571;28;20029;-65
2022/06/19 09:57:18;;;;;;;7.63;2.65;;;;;;;16.50;91.89;101094.00;5020951;28;20140;-67
2022/06/19 09:59:59;;;;;;;8.98;2.70;;;;;;;16.54;93.58;101085.34;5019130;28;20018;-67
2022/06/19 10:02:53;;;;;;;7.88;2.40;;;;;;;16.59;93.62;101071.44;5017766;28;20433;-66
2022/06/19 10:05:41;;;;;;;9.10;2.47;;;;;;;16.45;91.51;101048.63;5015785;28;20141;-66
2022/06/19 10:08:17;;;;;;;10.85;2.75;;;;;;;16.54;92.81;101042.63;5010332;28;20099;-66
2022/06/19 10:10:48;;;;;;;8.02;1.90;;;;;;;16.62;90.33;101030.47;5014291;28;20367;-66
2022/06/19 10:13:45;;;;;;;8.90;2.30;;;;;;;16.77;89.88;101024.53;5021537;28;20087;-66
2022/06/19 10:16:21;;;;;;;8.15;2.20;;;;;;;17.22;93.12;101021.44;5014475;28;20064;-67
2022/06/19 10:18:53;;;;;;;7.38;2.25;;;;;;;17.52;88.34;101017.25;5015964;28;20239;-66
2022/06/19 10:22:13;;;;;;;7.60;2.60;;;;;;;17.62;85.45;101020.81;5010745;28;20535;-66
2022/06/19 10:24:44;;;;;;;10.38;2.28;;;;;;;17.87;84.65;101023.56;5016142;28;20511;-67
2022/06/19 10:27:35;;;;;;;6.03;2.05;;;;;;;18.06;80.78;101020.13;5029524;28;20570;-67
2022/06/19 10:30:15;;;;;;;6.18;2.40;;;;;;;18.18;79.45;101003.59;5019371;28;20034;-66
2022/06/19 10:33:14;;;;;;;9.02;2.33;;;;;;;18.24;76.31;101020.22;5016781;28;20377;-66
2022/06/19 10:36:02;;;;;;;6.18;1.95;;;;;;;18.29;74.46;101054.34;5019390;28;20021;-65
2022/06/19 10:38:36;;;;;;;7.82;2.55;;;;;;;18.18;74.07;101066.53;5019136;28;20168;-66
2022/06/19 10:42:00;;;;;;;8.00;2.33;;;;;;;18.12;76.84;101056.84;5016055;28;20034;-65
2022/06/19 10:44:33;;;;;;;6.70;2.13;;;;;;;18.13;75.01;101032.41;5009957;28;20045;-66
2022/06/19 10:47:19;;;;;;;5.70;1.92;;;;;;;18.21;78.39;101029.81;5009785;28;20029;-66
2022/06/19 10:50:03;;;;;;;6.72;2.05;;;;;;;18.34;76.76;101025.50;5016077;28;20044;-65
2022/06/19 10:52:47;;;;;;;5.35;1.77;;;;;;;18.43;72.31;101020.28;5021343;28;20029;-63
2022/06/19 10:55:42;;;;;;;6.00;1.63;;;;;;;18.60;70.43;101032.56;5013622;28;20536;-64
2022/06/19 10:58:17;;;;;;;6.18;1.60;;;;;;;18.74;69.70;101056.19;5008655;28;20618;-64
2022/06/19 11:00:43;;;;;;;4.07;1.45;;;;;;;18.75;67.35;101065.81;5008715;28;20523;-63
2022/06/19 11:06:16;;;;;;;4.60;1.20;;;;;;;18.75;66.56;101088.53;5028370;28;20045;-63
2022/06/19 11:08:45;;;;;;;6.10;2.28;;;;;;;18.69;66.73;101092.06;5026924;28;20025;-63
2022/06/19 11:11:16;;;;;;;4.95;1.70;;;;;;;18.77;71.54;101071.94;5028566;28;20040;-64
2022/06/19 11:13:58;;;;;;;5.43;1.70;;;;;;;18.86;70.80;101076.31;5027898;28;20029;-64
2022/06/19 11:16:24;;;;;;;7.15;1.88;;;;;;;19.03;71.43;101088.59;5026662;28;20140;-64
2022/06/19 11:18:53;;;;;;;4.90;1.63;;;;;;;19.13;68.12;101087.75;5027379;28;20128;-63
2022/06/19 11:21:24;;;;;;;4.68;1.13;;;;;;;19.24;69.08;101107.88;5026920;28;20112;-64
2022/06/19 11:23:53;;;;;;;5.85;1.52;;;;;;;19.10;66.02;101120.97;5020171;28;20072;-64
2022/06/19 11:26:27;;;;;;;4.75;1.38;;;;;;;18.96;63.36;101113.94;5021849;28;20083;-64
2022/06/19 11:29:00;;;;;;;5.35;1.50;;;;;;;18.72;62.84;101110.41;5027732;28;20029;-64
2022/06/19 11:31:30;;;;;;;4.72;1.40;;;;;;;18.76;65.26;101108.69;5028087;28;20029;-64
2022/06/19 11:34:43;;;;;;;5.47;1.60;;;;;;;18.89;69.07;101123.56;5028790;28;20488;-63
2022/06/19 11:36:49;;;;;;;4.30;1.52;;;;;;;18.86;66.62;101123.56;5027504;28;20075;-63
2022/06/19 11:39:51;;;;;;;5.28;1.65;;;;;;;18.87;66.71;101127.94;5028331;28;20473;-63
2022/06/19 11:42:37;;;;;;;6.72;2.17;;;;;;;18.93;68.11;101127.97;5024715;28;20679;-63
2022/06/19 11:45:26;;;;;;;5.22;1.90;;;;;;;19.05;68.40;101113.09;5022217;28;20049;-64
2022/06/19 11:47:54;;;;;;;4.60;1.75;;;;;;;19.18;68.49;101101.75;5017990;28;20359;-66